createdAt,value
2022-08-05T00:00:53.107Z,3.80
2022-08-05T00:06:04.736Z,3.50
2022-08-05T00:11:23.868Z,3.30
2022-08-05T00:16:35.964Z,3.33
2022-08-05T00:21:39.363Z,3.27
2022-08-05T00:26:51.835Z,3.40
2022-08-05T00:32:12.197Z,3.43
2022-08-05T00:37:17.444Z,4.80
2022-08-05T00:42:32.608Z,4.77
2022-08-05T00:47:56.886Z,3.97
2022-08-05T00:52:58.196Z,4.40
2022-08-05T00:58:02.192Z,4.60
2022-08-05T01:03:08.219Z,4.10
2022-08-05T01:08:39.130Z,5.40
2022-08-05T01:13:57.931Z,5.30
2022-08-05T01:19:14.364Z,6.00
2022-08-05T01:24:32.415Z,5.40
2022-08-05T01:29:41.281Z,5.83
2022-08-05T01:34:51.777Z,5.73
2022-08-05T01:39:59.122Z,5.87
2022-08-05T01:45:04.365Z,5.20
2022-08-05T01:50:14.298Z,5.90
2022-08-05T01:55:21.583Z,6.03
2022-08-05T02:00:29.993Z,5.50
2022-08-05T02:05:37.514Z,5.70
2022-08-05T02:10:49.929Z,6.30
2022-08-05T02:16:01.629Z,5.40
2022-08-05T02:21:15.225Z,6.47
2022-08-05T02:26:23.228Z,5.90
2022-08-05T02:31:35.045Z,5.90
2022-08-05T02:36:42.177Z,6.37
2022-08-05T02:42:00.650Z,6.50
2022-08-05T02:47:10.041Z,7.60
2022-08-05T02:52:29.873Z,7.03
2022-08-05T02:58:10.937Z,6.17
2022-08-05T03:02:59.644Z,6.20
2022-08-05T03:08:08.613Z,7.00
2022-08-05T03:13:16.748Z,7.13
2022-08-05T03:18:24.609Z,6.67
2022-08-05T03:23:34.756Z,7.83
2022-08-05T03:28:38.350Z,7.63
2022-08-05T03:33:53.027Z,7.13
2022-08-05T03:38:56.090Z,7.20
2022-08-05T03:44:11.421Z,7.60
2022-08-05T03:49:16.138Z,7.47
2022-08-05T03:55:53.701Z,8.63
2022-08-05T03:59:54.950Z,8.27
2022-08-05T04:05:01.036Z,9.10
2022-08-05T04:10:04.313Z,9.80
2022-08-05T04:15:15.411Z,12.07
2022-08-05T04:20:22.119Z,14.20
2022-08-05T04:25:57.928Z,11.73
2022-08-05T04:30:49.425Z,9.93
2022-08-05T04:36:11.150Z,10.73
2022-08-05T04:41:16.508Z,11.50
2022-08-05T04:46:27.777Z,9.00
2022-08-05T04:51:32.807Z,12.07
2022-08-05T04:56:37.610Z,9.80
2022-08-05T05:02:07.693Z,10.03
2022-08-05T05:07:04.585Z,8.63
2022-08-05T05:12:12.132Z,10.00
2022-08-05T05:17:14.768Z,8.43
2022-08-05T05:22:23.382Z,7.23
2022-08-05T05:27:44.750Z,8.67
2022-08-05T05:32:48.769Z,7.73
2022-08-05T05:37:59.449Z,6.13
2022-08-05T05:43:03.367Z,6.50
2022-08-05T05:48:08.092Z,7.50
2022-08-05T05:53:22.232Z,6.70
2022-08-05T05:58:31.491Z,6.60
2022-08-05T06:03:54.128Z,5.47
2022-08-05T06:08:59.146Z,6.47
2022-08-05T06:14:02.767Z,5.77
2022-08-05T06:19:07.594Z,4.90
2022-08-05T06:24:12.850Z,5.30
2022-08-05T06:29:25.063Z,6.60
2022-08-05T06:34:40.595Z,5.23
2022-08-05T06:39:45.619Z,5.30
2022-08-05T06:44:49.245Z,4.57
2022-08-05T06:50:00.618Z,4.17
2022-08-05T06:55:06.915Z,3.40
2022-08-05T07:00:10.785Z,3.80
2022-08-05T07:05:19.147Z,3.20
2022-08-05T07:10:25.211Z,3.20
2022-08-05T07:16:04.788Z,3.90
2022-08-05T07:21:07.700Z,3.03
2022-08-05T07:26:13.968Z,3.47
2022-08-05T07:31:16.651Z,3.60
2022-08-05T07:36:21.550Z,3.23
2022-08-05T07:42:08.541Z,3.37
2022-08-05T07:46:50.292Z,4.00
2022-08-05T07:51:55.076Z,3.50
2022-08-05T07:57:17.662Z,3.43
2022-08-05T08:02:30.778Z,3.70
2022-08-05T08:07:39.532Z,3.70
2022-08-05T08:12:58.859Z,3.67
2022-08-05T08:18:03.507Z,3.73
2022-08-05T08:24:00.387Z,3.73
2022-08-05T08:28:36.886Z,3.60
2022-08-05T08:33:45.340Z,3.43
2022-08-05T08:38:53.402Z,4.60
2022-08-05T08:45:20.619Z,3.57
2022-08-05T08:50:14.689Z,3.43
2022-08-05T08:54:48.049Z,4.10
2022-08-05T08:59:52.185Z,2.93
2022-08-05T09:05:17.721Z,3.50
2022-08-05T09:10:21.851Z,3.83
2022-08-05T09:15:32.056Z,2.63
2022-08-05T09:20:41.667Z,2.80
2022-08-05T09:26:01.308Z,3.00
2022-08-05T09:31:22.277Z,3.13
2022-08-05T09:36:45.885Z,2.57
2022-08-05T09:41:59.619Z,2.80
2022-08-05T09:47:12.657Z,2.77
2022-08-05T09:52:19.931Z,3.10
2022-08-05T09:57:30.379Z,2.80
2022-08-05T10:02:42.035Z,2.20
2022-08-05T10:08:34.677Z,3.23
2022-08-05T10:13:26.582Z,2.43
2022-08-05T10:18:37.561Z,3.30
2022-08-05T10:23:59.329Z,3.03
2022-08-05T10:29:03.345Z,2.73
2022-08-05T10:34:08.459Z,2.33
2022-08-05T10:39:25.038Z,2.70
2022-08-05T10:44:39.899Z,2.60
2022-08-05T10:50:36.124Z,3.17
2022-08-05T10:55:38.447Z,3.87
2022-08-05T11:01:02.826Z,4.07
2022-08-05T11:06:15.631Z,3.37
2022-08-05T11:11:44.713Z,3.73
2022-08-05T11:17:57.268Z,4.67
2022-08-05T11:22:58.048Z,4.20
2022-08-05T11:28:39.862Z,5.17
2022-08-05T11:33:55.376Z,4.53
2022-08-05T11:39:02.668Z,3.37
2022-08-05T11:44:10.658Z,4.70
2022-08-05T11:49:15.564Z,5.80
2022-08-05T11:54:33.271Z,4.00
2022-08-05T11:59:49.782Z,3.87
2022-08-05T12:04:59.344Z,4.40
2022-08-05T12:10:09.544Z,4.10
2022-08-05T12:15:20.577Z,3.83
2022-08-05T12:20:39.256Z,2.80
2022-08-05T12:25:56.665Z,3.67
2022-08-05T12:31:02.086Z,2.03
2022-08-05T12:36:08.317Z,1.47
2022-08-05T12:41:14.326Z,1.40
2022-08-05T12:46:28.949Z,1.43
2022-08-05T12:52:10.950Z,2.20
2022-08-05T12:56:59.301Z,1.83
2022-08-05T13:02:07.386Z,1.80
2022-08-05T13:07:16.212Z,1.90
2022-08-05T13:12:23.176Z,1.93
2022-08-05T13:17:41.503Z,1.83
2022-08-05T13:22:49.066Z,1.30
2022-08-05T13:27:56.040Z,1.30
2022-08-05T13:33:01.674Z,1.20
2022-08-05T13:38:05.009Z,1.33
2022-08-05T13:43:12.227Z,1.13
2022-08-05T13:48:57.244Z,1.30
2022-08-05T13:53:47.489Z,1.00
2022-08-05T13:58:52.872Z,1.57
2022-08-05T14:04:13.693Z,1.10
2022-08-05T14:09:16.536Z,1.10
2022-08-05T14:14:23.343Z,1.20
2022-08-05T14:19:29.406Z,0.90
2022-08-05T14:24:31.995Z,1.40
2022-08-05T14:29:36.522Z,1.20
2022-08-05T14:34:39.163Z,1.00
2022-08-05T14:39:49.792Z,1.07
2022-08-05T14:45:01.081Z,1.00
2022-08-05T14:50:18.353Z,0.90
2022-08-05T14:55:21.978Z,0.80
2022-08-05T15:00:28.402Z,1.37
2022-08-05T15:06:08.077Z,1.03
2022-08-05T15:10:56.865Z,1.00
2022-08-05T15:16:01.465Z,1.60
2022-08-05T15:21:07.531Z,1.00
2022-08-05T15:26:10.621Z,0.90
2022-08-05T15:31:14.618Z,1.20
2022-08-05T15:36:24.210Z,0.80
2022-08-05T15:41:57.218Z,1.20
2022-08-05T15:46:52.659Z,1.20
2022-08-05T15:52:12.596Z,1.07
2022-08-05T15:57:18.020Z,1.10
2022-08-05T16:02:25.409Z,1.37
2022-08-05T16:07:29.635Z,0.90
2022-08-05T16:12:32.837Z,1.07
2022-08-05T16:17:37.069Z,1.30
2022-08-05T16:22:39.736Z,0.93
2022-08-05T16:28:00.925Z,1.20
2022-08-05T16:33:08.265Z,1.17
2022-08-05T16:38:24.510Z,0.90
2022-08-05T16:43:30.121Z,1.20
2022-08-05T16:48:35.322Z,1.03
2022-08-05T16:54:06.330Z,1.27
2022-08-05T16:59:07.595Z,0.90
2022-08-05T17:04:12.508Z,1.07
2022-08-05T17:09:17.814Z,0.83
2022-08-05T17:14:22.401Z,1.00
2022-08-05T17:19:38.641Z,1.27
2022-08-05T17:24:46.368Z,1.37
2022-08-05T17:30:02.558Z,1.00
2022-08-05T17:35:08.128Z,1.17
2022-08-05T17:40:17.566Z,0.97
2022-08-05T17:45:21.925Z,1.27
2022-08-05T17:50:29.984Z,1.60
2022-08-05T17:55:39.413Z,0.90
2022-08-05T18:00:47.064Z,1.10
2022-08-05T18:05:53.423Z,1.50
2022-08-05T18:10:56.841Z,1.73
2022-08-05T18:16:00.141Z,1.20
2022-08-05T18:21:05.294Z,1.53
2022-08-05T18:26:18.084Z,1.00
2022-08-05T18:31:22.304Z,0.80
2022-08-05T18:36:27.944Z,5.87
2022-08-05T18:41:56.033Z,1.40
2022-08-05T18:46:54.190Z,0.83
2022-08-05T18:52:18.218Z,1.10
2022-08-05T18:57:43.571Z,1.20
2022-08-05T19:02:56.435Z,1.00
2022-08-05T19:08:02.686Z,1.00
2022-08-05T19:13:05.559Z,1.60
2022-08-05T19:18:13.422Z,1.20
2022-08-05T19:24:07.125Z,1.40
2022-08-05T19:28:47.604Z,0.93
2022-08-05T19:33:56.448Z,1.00
2022-08-05T19:39:01.925Z,1.33
2022-08-05T19:44:13.437Z,0.90
2022-08-05T19:49:17.629Z,1.00
2022-08-05T19:54:31.048Z,1.47
2022-08-05T20:00:02.127Z,1.60
2022-08-05T20:04:58.488Z,1.90
2022-08-05T20:10:04.797Z,2.47
2022-08-05T20:15:15.763Z,2.10
2022-08-05T20:20:38.755Z,1.23
2022-08-05T20:25:43.103Z,1.90
2022-08-05T20:30:45.673Z,4.43
2022-08-05T20:35:50.715Z,1.40
2022-08-05T20:40:55.493Z,1.20
2022-08-05T20:46:00.286Z,1.43
2022-08-05T20:51:08.029Z,1.30
2022-08-05T20:56:12.425Z,1.23
2022-08-05T21:01:15.079Z,1.37
2022-08-05T21:06:27.694Z,1.60
2022-08-05T21:12:08.866Z,1.30
2022-08-05T21:16:55.932Z,1.13
2022-08-05T21:21:58.507Z,1.47
2022-08-05T21:27:02.708Z,1.53
2022-08-05T21:32:06.389Z,1.67
2022-08-05T21:37:09.044Z,1.20
2022-08-05T21:42:30.736Z,1.47
2022-08-05T21:47:56.525Z,1.40
2022-08-05T21:53:04.713Z,1.30
2022-08-05T21:58:20.539Z,1.50
2022-08-05T22:03:48.652Z,1.37
2022-08-05T22:08:55.890Z,1.70
2022-08-05T22:14:33.490Z,1.70
2022-08-05T22:20:01.701Z,1.70
2022-08-05T22:25:04.637Z,1.80
2022-08-05T22:30:15.065Z,1.70
2022-08-05T22:35:19.987Z,1.67
2022-08-05T22:40:22.680Z,2.03
2022-08-05T22:45:27.191Z,1.87
2022-08-05T22:50:33.387Z,1.87
2022-08-05T22:55:56.413Z,1.63
2022-08-05T23:01:01.328Z,1.60
2022-08-05T23:06:04.435Z,2.07
2022-08-05T23:11:09.130Z,1.73
2022-08-05T23:16:13.532Z,1.40
2022-08-05T23:21:42.563Z,1.43
2022-08-05T23:26:45.803Z,1.80
2022-08-05T23:31:51.808Z,1.53
2022-08-05T23:36:55.195Z,2.23
2022-08-05T23:41:57.832Z,1.60
2022-08-05T23:47:02.547Z,1.50
2022-08-05T23:52:30.689Z,1.97
2022-08-05T23:57:35.112Z,1.83
